Marcolorado — V2EY5 — position and weather

sailwx.info

Track history (hours):
 
Tides and Currents Weather Stations Pressure Air Temp Water Temp Dewpoint Dewpoint Depression Visibility Wind Speed Wind Dir Waves Ship Positions

Marcolorado

Last reported at 2015-Jun-22 13:10 UTC. Time now 2015-Jul-07 19:48 UTC.
Position N 22°01' E 114°21'.
Warning: this ship's position is 15 days out of date.

Length 185 m; draft 6.5 m.

Type: Ship. MMSI: 305599000.

Date/timePositionNaut miles runAvg speedWind from/ knotsBaromVisibWave heightAir tempDewpointWater temp
2015-Jun-22 13:10N 22°01' E 114°21'3011.6
2015-Jun-22 10:33N 22°06' E 113°49'3 2.5
2015-Jun-22 09:29N 22°08' E 113°47'0 0.2
2015-Jun-22 08:22N 22°08' E 113°47'0 0.1
2015-Jun-22 07:28N 22°08' E 113°47'0 0.0
2015-Jun-22 06:17N 22°08' E 113°47'0 0.0
2015-Jun-22 05:29N 22°08' E 113°47'0 0.0
2015-Jun-22 04:29N 22°08' E 113°47'0 0.0
2015-Jun-22 03:28N 22°08' E 113°47'0 0.0
2015-Jun-22 02:28N 22°08' E 113°47'0 0.0
2015-Jun-22 01:28N 22°08' E 113°47'0 0.0
2015-Jun-22 00:28N 22°08' E 113°47'0 0.0
2015-Jun-21 23:28N 22°08' E 113°47'0 0.0
2015-Jun-21 22:28N 22°08' E 113°47'0 0.1
2015-Jun-21 21:28N 22°08' E 113°47'0 0.1
2015-Jun-21 20:28N 22°08' E 113°47'0 0.1
2015-Jun-21 19:28N 22°08' E 113°47'0 0.0
2015-Jun-21 18:28N 22°08' E 113°47'0 0.1
2015-Jun-21 17:28N 22°08' E 113°47'0 0.0
2015-Jun-21 16:28N 22°08' E 113°47'0 0.0
2015-Jun-21 15:28N 22°08' E 113°47'0 0.0
2015-Jun-21 14:22N 22°08' E 113°47'0 0.3
2015-Jun-21 13:28N 22°08' E 113°47'0 0.0
2015-Jun-21 12:28N 22°08' E 113°47'0 0.1
2015-Jun-21 11:28N 22°08' E 113°47'0 0.0
2015-Jun-21 10:28N 22°08' E 113°47'0 0.0
2015-Jun-21 09:28N 22°08' E 113°47'0 0.0
2015-Jun-21 08:28N 22°08' E 113°47'0 0.0
2015-Jun-21 07:28N 22°08' E 113°47'0 0.1
2015-Jun-21 06:28N 22°08' E 113°47'0 0.1
2015-Jun-21 05:28N 22°08' E 113°47'0 0.0
2015-Jun-21 04:28N 22°08' E 113°47'0 0.1
2015-Jun-21 03:22N 22°08' E 113°47'0 0.0
2015-Jun-21 02:28N 22°08' E 113°47'0 0.0
2015-Jun-21 01:28N 22°08' E 113°47'0 0.2
2015-Jun-21 00:28N 22°08' E 113°47'0 0.0
2015-Jun-20 23:28N 22°08' E 113°47'0 0.0
2015-Jun-20 22:22N 22°08' E 113°47'0 0.1
2015-Jun-20 21:22N 22°08' E 113°47'0 0.0
2015-Jun-20 20:28N 22°08' E 113°47'0 0.1
2015-Jun-20 19:28N 22°08' E 113°47'0 0.0
2015-Jun-20 18:28N 22°08' E 113°47'0 0.1
2015-Jun-20 17:28N 22°08' E 113°47'0 0.0
2015-Jun-20 16:28N 22°08' E 113°47'0 0.0
2015-Jun-20 15:28N 22°08' E 113°47'0 0.1
2015-Jun-20 14:22N 22°08' E 113°47'0 0.1
2015-Jun-20 13:28N 22°08' E 113°47'0 0.1
2015-Jun-20 12:28N 22°08' E 113°47'0 0.1
2015-Jun-20 11:28N 22°08' E 113°47'1 1.5
2015-Jun-20 10:33N 22°09' E 113°48'1212.5
2015-Jun-20 09:34N 22°21' E 113°47'2014.0
2015-Jun-20 08:07N 22°40' E 113°40'2 0.2
2015-Jun-19 23:10N 22°42' E 113°39'0 0.0
2015-Jun-19 22:28N 22°42' E 113°39'0 0.0
2015-Jun-19 21:28N 22°42' E 113°39'0 0.0
2015-Jun-19 20:16N 22°42' E 113°39'1 0.1
2015-Jun-19 09:22N 22°41' E 113°40'0 0.0
2015-Jun-19 08:28N 22°41' E 113°40'0 0.0
2015-Jun-18 10:33N 22°41' E 113°40'0 0.0
2015-Jun-18 09:15N 22°41' E 113°40'0 0.0
2015-Jun-18 08:21N 22°41' E 113°40'0 0.1
2015-Jun-18 07:33N 22°41' E 113°40'0 0.1
2015-Jun-18 06:33N 22°41' E 113°40'  
Track history (hours):
 
Tides and Currents Weather Stations Pressure Air Temp Water Temp Dewpoint Dewpoint Depression Visibility Wind Speed Wind Dir Waves Ship Positions

Marcolorado

Last reported at 2015-Jun-22 13:10 UTC. Time now 2015-Jul-07 19:48 UTC.
Position N 22°01' E 114°21'.
Warning: this ship's position is 15 days out of date.

Length 185 m; draft 6.5 m.

Type: Ship. MMSI: 305599000.

Date/timePositionNaut miles runAvg speedWind from/ knotsBaromVisibWave heightAir tempDewpointWater temp
2015-Jun-22 13:10N 22°01' E 114°21'3011.6
2015-Jun-22 10:33N 22°06' E 113°49'3 2.5
2015-Jun-22 09:29N 22°08' E 113°47'0 0.2
2015-Jun-22 08:22N 22°08' E 113°47'0 0.1
2015-Jun-22 07:28N 22°08' E 113°47'0 0.0
2015-Jun-22 06:17N 22°08' E 113°47'0 0.0
2015-Jun-22 05:29N 22°08' E 113°47'0 0.0
2015-Jun-22 04:29N 22°08' E 113°47'0 0.0
2015-Jun-22 03:28N 22°08' E 113°47'0 0.0
2015-Jun-22 02:28N 22°08' E 113°47'0 0.0
2015-Jun-22 01:28N 22°08' E 113°47'0 0.0
2015-Jun-22 00:28N 22°08' E 113°47'0 0.0
2015-Jun-21 23:28N 22°08' E 113°47'0 0.0
2015-Jun-21 22:28N 22°08' E 113°47'0 0.1
2015-Jun-21 21:28N 22°08' E 113°47'0 0.1
2015-Jun-21 20:28N 22°08' E 113°47'0 0.1
2015-Jun-21 19:28N 22°08' E 113°47'0 0.0
2015-Jun-21 18:28N 22°08' E 113°47'0 0.1
2015-Jun-21 17:28N 22°08' E 113°47'0 0.0
2015-Jun-21 16:28N 22°08' E 113°47'0 0.0
2015-Jun-21 15:28N 22°08' E 113°47'0 0.0
2015-Jun-21 14:22N 22°08' E 113°47'0 0.3
2015-Jun-21 13:28N 22°08' E 113°47'0 0.0
2015-Jun-21 12:28N 22°08' E 113°47'0 0.1
2015-Jun-21 11:28N 22°08' E 113°47'0 0.0
2015-Jun-21 10:28N 22°08' E 113°47'0 0.0
2015-Jun-21 09:28N 22°08' E 113°47'0 0.0
2015-Jun-21 08:28N 22°08' E 113°47'0 0.0
2015-Jun-21 07:28N 22°08' E 113°47'0 0.1
2015-Jun-21 06:28N 22°08' E 113°47'0 0.1
2015-Jun-21 05:28N 22°08' E 113°47'0 0.0
2015-Jun-21 04:28N 22°08' E 113°47'0 0.1
2015-Jun-21 03:22N 22°08' E 113°47'0 0.0
2015-Jun-21 02:28N 22°08' E 113°47'0 0.0
2015-Jun-21 01:28N 22°08' E 113°47'0 0.2
2015-Jun-21 00:28N 22°08' E 113°47'0 0.0
2015-Jun-20 23:28N 22°08' E 113°47'0 0.0
2015-Jun-20 22:22N 22°08' E 113°47'0 0.1
2015-Jun-20 21:22N 22°08' E 113°47'0 0.0
2015-Jun-20 20:28N 22°08' E 113°47'0 0.1
2015-Jun-20 19:28N 22°08' E 113°47'0 0.0
2015-Jun-20 18:28N 22°08' E 113°47'0 0.1
2015-Jun-20 17:28N 22°08' E 113°47'0 0.0
2015-Jun-20 16:28N 22°08' E 113°47'0 0.0
2015-Jun-20 15:28N 22°08' E 113°47'0 0.1
2015-Jun-20 14:22N 22°08' E 113°47'0 0.1
2015-Jun-20 13:28N 22°08' E 113°47'0 0.1
2015-Jun-20 12:28N 22°08' E 113°47'0 0.1
2015-Jun-20 11:28N 22°08' E 113°47'1 1.5
2015-Jun-20 10:33N 22°09' E 113°48'1212.5
2015-Jun-20 09:34N 22°21' E 113°47'2014.0
2015-Jun-20 08:07N 22°40' E 113°40'2 0.2
2015-Jun-19 23:10N 22°42' E 113°39'0 0.0
2015-Jun-19 22:28N 22°42' E 113°39'0 0.0
2015-Jun-19 21:28N 22°42' E 113°39'0 0.0
2015-Jun-19 20:16N 22°42' E 113°39'1 0.1
2015-Jun-19 09:22N 22°41' E 113°40'0 0.0
2015-Jun-19 08:28N 22°41' E 113°40'0 0.0
2015-Jun-18 10:33N 22°41' E 113°40'0 0.0
2015-Jun-18 09:15N 22°41' E 113°40'0 0.0
2015-Jun-18 08:21N 22°41' E 113°40'0 0.1
2015-Jun-18 07:33N 22°41' E 113°40'0 0.1
2015-Jun-18 06:33N 22°41' E 113°40'  

Dump ship's entire track history